Latest Weather Observations for Cape Grim

IDT60801

Issued at 10:35 pm EST Saturday 19 April 2014 (issued every 30 minutes, with the page automatically refreshed every 10 minutes)

About weather observations | Map of weather stations | Latest weather observations for TAS | Other Formats
Station Details ID: 091331 Name: CAPE GRIM Lat: -40.68 Lon: 144.69 Height: 86.0 m
Data from the previous 72 hours. | See also: Recent months for locations in Tasmania
Date/Time
EST
Temp
°C
App
Temp
°C
Dew
Point
Rel
Hum
%
Delta-T
°C
Wind Press
QNH
hPa
Press
MSL
hPa
Rain
since 9 am
mm
Dir
 
Spd
km/h
Gust
km/h
Spd
kts
Gust
kts
19/10:30pm 12.3 8.4 7.0 70 2.6 W 17 24 9 13 1015.8 - 0.4
19/10:00pm 11.9 8.4 7.2 73 2.3 W 15 26 8 14 1016.2 - 0.4
19/09:30pm 11.0 8.5 8.0 82 1.5 WSW 11 17 6 9 1016.5 - 0.4
19/09:00pm 10.3 6.6 8.1 86 1.1 SSW 17 20 9 11 1016.6 1017.4 0.4
19/08:30pm 10.7 5.8 8.5 86 1.1 WSW 24 35 13 19 1017.0 - 0.2
19/08:00pm 10.8 4.8 8.7 87 1.0 W 30 43 16 23 1016.8 - 0.2
19/07:30pm 12.4 8.8 6.9 69 2.6 WSW 15 26 8 14 1016.7 - 0.0
19/07:00pm 12.1 8.4 6.4 68 2.7 W 15 24 8 13 1016.8 - 0.0
19/06:30pm 12.2 8.2 6.5 68 2.7 SW 17 30 9 16 1016.7 - 0.0
19/06:00pm 11.7 7.8 7.0 73 2.3 WSW 17 24 9 13 1016.5 1017.3 0.0
19/05:30pm 11.8 7.1 7.9 77 1.9 WSW 22 41 12 22 1016.5 - 0.0
19/05:00pm 12.3 8.6 6.4 67 2.8 WSW 15 32 8 17 1016.5 - 0.0
19/04:30pm 12.6 6.3 5.8 63 3.2 SW 28 35 15 19 1016.7 - 0.0
19/04:00pm 13.0 7.0 5.4 60 3.6 SW 26 35 14 19 1016.9 - 0.0
19/03:30pm 12.5 6.5 7.0 69 2.7 SW 28 37 15 20 1017.0 - 0.0
19/03:00pm 12.3 6.2 8.2 76 2.0 SW 30 50 16 27 1017.0 1017.8 0.0
19/02:30pm 12.5 6.1 7.0 69 2.7 SW 30 48 16 26 1017.0 - 0.0
19/02:00pm 13.5 7.6 7.3 66 3.0 SW 28 39 15 21 1017.1 - 0.0
19/01:30pm 13.5 7.4 6.4 62 3.4 SW 28 41 15 22 1017.3 - 0.0
19/01:00pm 13.4 7.8 7.0 65 3.1 SW 26 39 14 21 1017.3 - 0.0
19/12:30pm 13.2 6.6 6.1 62 3.4 SW 30 39 16 21 1017.8 - 0.0
19/12:00pm 13.9 6.9 5.8 58 3.8 SW 32 43 17 23 1018.1 1018.9 0.0
19/11:30am 13.9 7.2 5.5 57 4.0 SW 30 43 16 23 1018.3 - 0.0
19/11:00am 12.8 6.3 6.4 65 3.1 SW 30 43 16 23 1018.4 - 0.0
19/10:30am 12.9 6.3 6.0 63 3.3 SW 30 44 16 24 1018.5 - 0.0
19/10:00am 13.1 5.3 5.0 58 3.8 SW 35 44 19 24 1018.5 - 0.0
19/09:30am 12.4 4.0 5.6 63 3.2 SW 39 48 21 26 1018.4 - 0.0
19/09:00am 12.7 4.4 4.2 56 3.9 SW 37 46 20 25 1018.3 1019.1 0.4
19/08:30am 12.8 5.1 5.5 61 3.4 SW 35 48 19 26 1017.9 - 0.4
19/08:00am 12.4 5.6 5.3 62 3.3 SW 30 46 16 25 1017.8 - 0.4
19/07:30am 12.2 4.5 7.1 71 2.5 SW 37 50 20 27 1017.7 - 0.4
19/07:00am 12.2 4.4 5.1 62 3.3 SW 35 50 19 27 1017.3 - 0.4
19/06:30am 12.6 4.3 6.0 64 3.1 SW 39 48 21 26 1017.2 - 0.4
19/06:00am 12.3 4.9 6.6 68 2.7 SW 35 48 19 26 1017.1 1017.9 0.4
19/05:30am 12.1 4.6 6.2 67 2.8 SW 35 46 19 25 1017.1 - 0.4
19/05:00am 12.0 2.9 6.1 67 2.8 SW 43 52 23 28 1017.0 - 0.4
19/04:30am 11.0 4.5 8.2 83 1.4 WSW 32 61 17 33 1017.0 - 0.4
19/04:00am 12.5 4.7 6.8 68 2.7 SW 37 56 20 30 1016.9 - 0.2
19/03:30am 12.5 3.4 6.1 65 3.0 SW 43 52 23 28 1016.9 - 0.2
19/03:00am 12.1 4.8 7.2 72 2.4 SW 35 48 19 26 1016.9 1017.7 0.2
19/02:30am 11.7 4.8 6.6 71 2.4 SSW 32 43 17 23 1017.1 - 0.2
19/02:21am 12.0 5.3 7.3 73 2.3 SSW 32 52 17 28 1017.1 - 0.2
19/02:00am 12.2 3.6 6.5 68 2.7 SW 41 52 22 28 1017.3 - 0.2
19/01:30am 11.9 2.3 6.4 69 2.6 SW 46 57 25 31 1017.5 - 0.2
19/01:06am 12.0 3.0 7.3 73 2.3 SW 44 63 24 34 1017.3 - 0.2
19/01:00am 12.0 3.0 6.3 68 2.7 SW 43 54 23 29 1017.4 - 0.2
19/12:30am 12.4 3.4 6.2 66 2.9 SW 43 56 23 30 1017.3 - 0.2
19/12:00am 10.9 1.3 7.8 81 1.5 SW 48 61 26 33 1017.5 1018.3 0.2
 
Date/Time
EST
Temp
°C
App
Temp
°C
Dew
Point
Rel
Hum
%
Delta-T
°C
Wind Press
QNH
hPa
Press
MSL
hPa
Rain
since 9 am
mm
Dir
 
Spd
km/h
Gust
km/h
Spd
kts
Gust
kts
18/11:45pm 12.1 3.5 6.4 68 2.7 SW 41 59 22 32 1017.3 - 0.2
18/11:30pm 12.5 3.1 7.0 69 2.7 SW 46 59 25 32 1017.3 - 0.2
18/11:02pm 12.3 3.0 7.4 72 2.4 SW 46 65 25 35 1017.2 - 0.2
18/11:00pm 12.2 2.5 7.5 73 2.3 SW 48 65 26 35 1017.2 - 0.2
18/10:30pm 12.5 1.7 6.1 65 3.0 SW 52 63 28 34 1017.3 - 0.2
18/10:00pm 12.3 2.1 7.0 70 2.6 SW 50 65 27 35 1017.3 - 0.2
18/09:30pm 11.9 0.4 7.2 73 2.3 SW 57 76 31 41 1017.2 - 0.2
18/09:24pm 12.1 1.1 6.8 70 2.5 SW 54 76 29 41 1017.0 - 0.2
18/09:00pm 12.5 1.5 6.8 68 2.7 SW 54 67 29 36 1016.8 1017.6 0.2
18/08:30pm 12.8 1.7 8.1 73 2.3 SW 56 69 30 37 1016.5 - 0.2
18/08:00pm 12.4 1.1 7.3 71 2.5 SW 56 74 30 40 1016.3 - 0.2
18/07:47pm 13.1 1.8 8.0 71 2.5 SW 57 76 31 41 1016.2 - 0.2
18/07:43pm 12.8 1.0 5.5 61 3.4 SW 57 65 31 35 1016.1 - 0.2
18/07:30pm 12.6 5.3 7.3 70 2.6 WSW 35 70 19 38 1016.2 - 0.2
18/07:27pm 12.6 5.9 7.5 71 2.5 WSW 32 70 17 38 1016.1 - 0.2
18/07:00pm 13.1 1.9 8.2 72 2.4 SW 57 76 31 41 1015.9 - 0.2
18/06:40pm 13.3 2.6 6.4 63 3.3 SW 52 70 28 38 1015.6 - 0.2
18/06:30pm 13.3 1.8 7.1 66 3.0 SW 57 74 31 40 1015.5 - 0.2
18/06:00pm 13.4 2.1 7.2 66 3.0 SW 56 69 30 37 1015.1 1015.9 0.2
18/05:30pm 13.4 2.2 5.8 60 3.6 SW 54 76 29 41 1014.8 - 0.2
18/05:16pm 13.4 1.8 6.0 61 3.5 SW 56 74 30 40 1014.7 - 0.2
18/05:00pm 13.4 2.0 6.7 64 3.2 SW 56 72 30 39 1014.6 - 0.2
18/04:30pm 13.4 2.1 7.8 69 2.8 SW 57 69 31 37 1014.5 - 0.2
18/04:22pm 13.1 0.9 7.5 69 2.7 SW 61 80 33 43 1014.4 - 0.2
18/04:17pm 13.8 1.2 8.8 72 2.5 SW 65 80 35 43 1014.3 - 0.2
18/04:09pm 13.7 4.9 7.9 68 2.9 SW 44 63 24 34 1014.2 - 0.2
18/04:00pm 13.7 3.7 7.7 67 3.0 SW 50 65 27 35 1014.2 - 0.2
18/03:36pm 14.3 3.7 6.9 61 3.6 SW 52 70 28 38 1014.0 - 0.2
18/03:30pm 14.2 2.7 6.3 59 3.8 SW 56 70 30 38 1013.9 - 0.2
18/03:00pm 14.2 2.7 7.3 63 3.4 SW 57 76 31 41 1013.6 1014.3 0.2
18/02:33pm 14.1 2.6 7.2 63 3.4 SW 57 76 31 41 1013.4 - 0.2
18/02:30pm 14.7 3.2 7.0 60 3.8 SW 57 70 31 38 1013.4 - 0.2
18/02:09pm 13.5 2.3 7.5 67 3.0 SW 56 74 30 40 1013.1 - 0.2
18/02:00pm 13.6 1.8 7.6 67 3.0 SW 59 72 32 39 1013.0 - 0.2
18/01:30pm 14.1 3.7 7.9 66 3.1 SW 52 72 28 39 1012.7 - 0.2
18/01:00pm 14.6 4.2 7.6 63 3.5 SW 52 74 28 40 1012.6 - 0.2
18/12:30pm 15.0 5.5 8.3 64 3.4 SW 48 72 26 39 1012.6 - 0.2
18/12:00pm 14.1 2.6 6.2 59 3.8 SW 56 74 30 40 1012.7 1013.4 0.2
18/11:59am 14.2 3.2 6.6 60 3.7 SW 54 72 29 39 1012.7 - 0.2
18/11:30am 14.6 3.2 7.6 63 3.5 SW 57 72 31 39 1012.7 - 0.2
18/11:01am 14.5 3.3 7.5 63 3.5 SW 56 74 30 40 1012.4 - 0.2
18/11:00am 14.3 2.8 6.4 59 3.8 SW 56 72 30 39 1012.4 - 0.2
18/10:30am 14.3 3.0 7.8 65 3.2 SW 57 76 31 41 1012.0 - 0.2
18/10:13am 13.9 4.7 9.5 75 2.3 SW 48 69 26 37 1012.0 - 0.2
18/10:00am 13.6 4.5 10.0 79 1.9 SW 48 61 26 33 1012.1 - 0.2
18/09:32am 13.1 2.7 9.2 77 2.0 SW 54 72 29 39 1012.1 - 0.2
18/09:30am 13.2 3.5 8.9 75 2.2 SW 50 67 27 36 1012.1 - 0.2
18/09:07am 12.9 5.0 9.5 80 1.7 SW 41 59 22 32 1011.9 - 0.0
18/09:00am 12.7 4.6 9.9 83 1.4 SW 43 61 23 33 1011.9 1012.6 3.8
18/08:52am 12.8 4.4 10.9 88 1.0 SW 46 65 25 35 1011.9 - 3.8
18/08:46am 12.7 4.6 10.9 89 0.9 SW 44 57 24 31 1011.6 - 3.6
18/08:30am 12.9 6.2 11.1 89 0.9 SW 37 56 20 30 1011.8 - 3.0
18/08:29am 12.9 6.2 11.1 89 0.9 SW 37 56 20 30 1011.8 - 3.0
18/08:00am 12.5 1.0 10.2 86 1.2 SW 61 76 33 41 1011.6 - 3.0
18/07:56am 12.6 0.8 10.3 86 1.2 SW 63 78 34 42 1011.6 - 3.0
18/07:40am 12.4 -0.4 10.8 90 0.8 SW 69 91 37 49 1011.0 - 2.8
18/07:33am 13.0 4.8 11.7 92 0.7 SW 46 80 25 43 1010.8 - 2.6
18/07:30am 12.5 3.0 11.1 91 0.7 W 52 80 28 43 1010.6 - 2.6
18/07:28am 13.1 3.8 12.0 93 0.6 W 52 70 28 38 1010.7 - 2.4
18/07:23am 12.9 2.4 11.0 88 1.0 W 57 70 31 38 1010.8 - 1.8
18/07:21am 14.4 8.3 13.1 92 0.7 NW 37 56 20 30 1010.4 - 1.0
18/07:00am 14.5 8.2 13.4 93 0.6 NW 39 50 21 27 1010.5 - 0.4
18/06:59am 14.5 8.1 13.2 92 0.7 NW 39 54 21 29 1010.5 - 0.4
18/06:43am 14.8 9.2 13.2 90 0.9 NW 35 54 19 29 1010.6 - 0.0
18/06:42am 14.9 9.7 13.3 90 0.9 NW 33 54 18 29 1010.6 - 0.0
18/06:30am 15.2 9.5 13.1 87 1.2 NW 35 46 19 25 1010.7 - 0.0
18/06:00am 15.4 9.9 12.5 83 1.6 NW 33 46 18 25 1010.9 1011.6 0.0
18/05:30am 15.4 9.8 12.2 81 1.8 NNW 33 46 18 25 1011.2 - 0.0
18/05:00am 15.4 9.8 12.0 80 1.9 NW 33 48 18 26 1011.7 - 0.0
18/04:30am 15.3 9.5 11.5 78 2.1 NW 33 48 18 26 1011.8 - 0.0
18/04:00am 15.4 9.3 11.6 78 2.1 NNW 35 46 19 25 1012.1 - 0.0
18/03:30am 15.4 10.1 11.4 77 2.2 NW 30 43 16 23 1012.5 - 0.0
18/03:00am 15.6 10.3 12.4 81 1.8 NNW 32 43 17 23 1013.1 1013.8 0.0
18/02:30am 15.6 10.6 12.2 80 1.9 NW 30 39 16 21 1013.5 - 0.0
18/02:00am 15.9 10.5 12.3 79 2.0 NNW 32 41 17 22 1013.9 - 0.0
18/01:30am 15.6 10.0 12.2 80 1.9 NNW 33 39 18 21 1014.1 - 0.0
18/01:00am 16.0 10.4 12.2 78 2.1 NNW 33 41 18 22 1014.5 - 0.0
18/12:30am 16.1 10.3 12.8 81 1.8 NNW 35 41 19 22 1015.0 - 0.0
18/12:00am 16.0 11.3 13.1 83 1.6 NNW 30 39 16 21 1015.4 1016.2 0.0
 
Date/Time
EST
Temp
°C
App
Temp
°C
Dew
Point
Rel
Hum
%
Delta-T
°C
Wind Press
QNH
hPa
Press
MSL
hPa
Rain
since 9 am
mm
Dir
 
Spd
km/h
Gust
km/h
Spd
kts
Gust
kts
17/11:30pm 15.8 11.1 13.1 84 1.5 NNW 30 35 16 19 1015.7 - 0.0
17/11:00pm 15.7 11.7 13.0 84 1.5 NNW 26 32 14 17 1015.9 - 0.0
17/10:30pm 15.8 12.6 13.1 84 1.5 NNW 22 30 12 16 1016.3 - 0.0
17/10:00pm 15.7 12.8 13.0 84 1.5 N 20 26 11 14 1016.6 - 0.0
17/09:30pm 16.1 12.8 12.7 80 1.9 NNW 22 28 12 15 1016.8 - 0.0
17/09:00pm 15.5 12.6 12.3 81 1.8 N 19 20 10 11 1016.9 1017.7 0.0
17/08:30pm 15.6 13.0 12.0 79 2.0 NNW 17 20 9 11 1016.9 - 0.0
17/08:00pm 16.2 14.2 12.6 79 2.0 NW 15 22 8 12 1017.3 - 0.0
17/07:30pm 15.4 13.6 13.4 88 1.1 N 15 20 8 11 1017.3 - 0.0
17/07:00pm 15.0 12.7 12.9 87 1.2 N 17 20 9 11 1017.3 - 0.0
17/06:30pm 15.8 14.1 13.5 86 1.3 N 15 19 8 10 1017.4 - 0.0
17/06:00pm 15.3 12.6 13.0 86 1.3 N 19 22 10 12 1017.6 1018.4 0.0
17/05:30pm 15.8 13.2 13.1 84 1.5 N 19 24 10 13 1017.7 - 0.0
17/05:00pm 15.8 12.7 12.2 79 2.0 N 20 24 11 13 1017.8 - 0.0
17/04:30pm 16.6 13.6 12.4 76 2.3 N 20 26 11 14 1017.7 - 0.0
17/04:00pm 17.1 14.2 13.0 77 2.3 N 20 24 11 13 1017.8 - 0.0
17/03:30pm 17.4 14.6 12.5 73 2.7 N 19 24 10 13 1017.9 - 0.0
17/03:00pm 17.6 14.9 12.9 74 2.6 N 19 24 10 13 1018.1 1018.9 0.0
17/02:30pm 17.9 15.1 13.2 74 2.7 N 20 24 11 13 1018.2 - 0.0
17/02:00pm 18.1 15.6 14.2 78 2.2 N 20 24 11 13 1018.5 - 0.0
17/01:56pm 17.5 14.8 13.6 78 2.2 N 20 24 11 13 1018.4 - 0.0
17/01:30pm 18.0 16.1 14.1 78 2.2 N 17 22 9 12 1018.6 - 0.0
17/01:25pm 16.9 14.7 13.2 79 2.1 N 17 28 9 15 1018.6 - 0.0
17/01:00pm 17.2 14.1 13.5 79 2.1 NE 22 24 12 13 1018.8 - 0.0
17/12:30pm 17.1 13.9 13.2 78 2.2 NE 22 28 12 15 1019.0 - 0.0
17/12:00pm 17.1 14.0 13.4 79 2.1 NE 22 32 12 17 1019.5 1020.3 0.0
17/11:30am 16.7 13.8 13.0 79 2.1 NE 20 24 11 13 1019.8 - 0.0
17/11:00am 17.7 15.0 13.4 76 2.4 NE 20 26 11 14 1019.8 - 0.0
17/10:30am 17.9 16.0 14.2 79 2.1 NE 17 20 9 11 1020.0 - 0.0
17/10:00am 17.4 15.1 14.1 81 1.9 NE 19 22 10 12 1019.9 - 0.0
17/09:30am 16.1 14.8 13.8 86 1.3 ENE 13 17 7 9 1019.9 - 0.0
17/09:00am 15.1 13.7 13.3 89 1.0 ENE 13 17 7 9 1019.8 1020.6 0.0
17/08:30am 14.1 12.7 12.3 89 1.0 ENE 11 15 6 8 1019.7 - 0.0
17/08:00am 12.7 9.4 10.9 89 0.9 E 19 20 10 11 1019.4 - 0.0
17/07:30am 11.5 9.1 10.2 92 0.7 E 13 17 7 9 1019.5 - 0.0
17/07:00am 11.5 9.1 9.9 90 0.8 E 13 15 7 8 1019.3 - 0.0
17/06:30am 12.2 10.2 10.3 88 1.0 ENE 11 11 6 6 1019.3 - 0.0
17/06:00am 12.7 10.9 10.9 89 0.9 ENE 11 13 6 7 1019.2 1020.0 0.0
17/05:30am 13.0 11.7 11.1 88 1.0 NE 9 11 5 6 1019.3 - 0.0
17/05:00am 13.3 11.2 11.2 87 1.1 NNE 13 13 7 7 1019.3 - 0.0
17/04:30am 13.3 10.8 11.2 87 1.1 NNE 15 17 8 9 1019.1 - 0.0
17/04:00am 13.2 10.4 11.3 88 1.0 NNE 17 19 9 10 1018.9 - 0.0
17/03:30am 13.1 9.9 11.2 88 1.0 NNE 19 19 10 10 1018.9 - 0.0
17/03:00am 13.2 10.3 11.1 87 1.1 NNE 17 20 9 11 1019.0 1019.8 0.0
17/02:30am 13.5 10.3 11.4 87 1.1 NNE 19 20 10 11 1019.1 - 0.0
17/02:00am 13.0 9.7 10.9 87 1.1 NNE 19 20 10 11 1019.2 - 0.0
17/01:30am 13.5 10.3 11.2 86 1.2 NNE 19 20 10 11 1019.4 - 0.0
17/01:00am 13.4 10.2 11.3 87 1.1 NNE 19 20 10 11 1019.3 - 0.0
17/12:30am 13.5 10.1 11.2 86 1.2 NNE 20 24 11 13 1019.4 - 0.0
17/12:00am 13.5 10.3 11.4 87 1.1 NNE 19 20 10 11 1019.5 1020.3 0.0
 
Date/Time
EST
Temp
°C
App
Temp
°C
Dew
Point
Rel
Hum
%
Delta-T
°C
Wind Press
QNH
hPa
Press
MSL
hPa
Rain
since 9 am
mm
Dir
 
Spd
km/h
Gust
km/h
Spd
kts
Gust
kts
16/11:30pm 13.3 10.5 11.2 87 1.1 NNE 17 20 9 11 1019.8 - 0.0
16/11:00pm 13.7 10.6 11.6 87 1.1 NNE 19 22 10 12 1019.6 - 0.0

Other Formats:

Comma delimited format used in spreadsheet applications
http://www.bom.gov.au/fwo/IDT60801/IDT60801.95954.axf

JavaScript Object Notation format (JSON) in row-major order
http://www.bom.gov.au/fwo/IDT60801/IDT60801.95954.json